Cherdyn, Russia
Current Conditions -  °F | °C
As of 9:30 PM on Monday 24 Nov 2014 (Local Time) from USPP Reporting Station
Clear Clear  
Wind Chill: -11°   Ceiling: Unl
Heat Index:   Visibility: 6mi
Dew Point:   Wind: 16mph
Humidity: 72%   Direction: 250°WSW
Pressure: 30.56"   Gusts: NA
Location:  60.4°N, 56.48°E
Report Text: USPP 241630Z 25007MPS CAVOK M14/M18 Q1035 21090060 NOSIG RMKQFE765/1020
Loading
Personal Weather Stations






























Interactive Weather Map New forecast layout! Learn more

10-Day Weather Forecast

Advertisements
Track Severe Weather on mobile